createdAt,value
2022-12-29T00:00:01.521Z,59.46
2022-12-29T00:01:01.525Z,59.46
2022-12-29T00:02:01.497Z,58.17
2022-12-29T00:03:01.577Z,58.65
2022-12-29T00:04:01.491Z,58.01
2022-12-29T00:05:01.470Z,58.49
2022-12-29T00:06:01.468Z,58.81
2022-12-29T00:07:01.439Z,57.36
2022-12-29T00:08:01.464Z,59.14
2022-12-29T00:09:01.454Z,58.81
2022-12-29T00:10:01.571Z,57.36
2022-12-29T00:11:01.449Z,58.65
2022-12-29T00:12:01.441Z,58.81
2022-12-29T00:13:01.435Z,59.14
2022-12-29T00:14:01.398Z,58.01
2022-12-29T00:15:01.439Z,58.01
2022-12-29T00:16:01.541Z,62.04
2022-12-29T00:17:01.409Z,59.30
2022-12-29T00:18:01.370Z,58.49
2022-12-29T00:19:01.410Z,58.97
2022-12-29T00:20:01.443Z,58.97
2022-12-29T00:21:01.428Z,59.14
2022-12-29T00:22:01.362Z,58.17
2022-12-29T00:23:01.366Z,58.65
2022-12-29T00:24:01.352Z,58.49
2022-12-29T00:25:01.340Z,58.01
2022-12-29T00:26:01.357Z,58.65
2022-12-29T00:27:01.353Z,58.65
2022-12-29T00:28:06.577Z,58.65
2022-12-29T00:29:03.326Z,58.49
2022-12-29T00:30:01.312Z,59.94
2022-12-29T00:31:01.336Z,59.14
2022-12-29T00:32:01.328Z,58.49
2022-12-29T00:33:01.272Z,58.97
2022-12-29T00:34:01.268Z,60.42
2022-12-29T00:35:01.295Z,59.94
2022-12-29T00:36:01.280Z,58.97
2022-12-29T00:37:01.231Z,57.85
2022-12-29T00:38:01.269Z,59.14
2022-12-29T00:39:01.273Z,58.97
2022-12-29T00:40:01.260Z,58.49
2022-12-29T00:41:01.247Z,58.49
2022-12-29T00:42:01.211Z,59.78
2022-12-29T00:43:01.345Z,58.49
2022-12-29T00:44:01.264Z,58.97
2022-12-29T00:45:01.216Z,58.65
2022-12-29T00:46:01.214Z,57.52
2022-12-29T00:47:01.259Z,58.33
2022-12-29T00:48:01.202Z,59.14
2022-12-29T00:49:01.276Z,58.01
2022-12-29T00:50:01.166Z,58.65
2022-12-29T00:51:01.181Z,58.65
2022-12-29T00:52:01.185Z,58.65
2022-12-29T00:53:01.164Z,58.81
2022-12-29T00:54:01.292Z,58.97
2022-12-29T00:55:01.126Z,57.85
2022-12-29T00:56:01.145Z,58.33
2022-12-29T00:57:01.134Z,59.14
2022-12-29T00:58:01.187Z,58.65
2022-12-29T00:59:01.148Z,58.17
2022-12-29T01:00:01.198Z,58.33
2022-12-29T01:01:01.135Z,58.33
2022-12-29T01:02:01.263Z,58.97
2022-12-29T01:03:01.320Z,58.33
2022-12-29T01:04:04.146Z,59.14
2022-12-29T01:05:02.108Z,59.46
2022-12-29T01:06:01.081Z,58.97
2022-12-29T01:07:01.079Z,58.65
2022-12-29T01:08:01.076Z,60.59
2022-12-29T01:09:01.051Z,59.78
2022-12-29T01:10:01.064Z,59.62
2022-12-29T01:11:01.065Z,58.81
2022-12-29T01:12:01.049Z,64.45
2022-12-29T01:13:01.036Z,59.14
2022-12-29T01:14:01.030Z,59.14
2022-12-29T01:15:01.044Z,58.17
2022-12-29T01:16:01.051Z,58.33
2022-12-29T01:17:00.988Z,59.78
2022-12-29T01:18:01.009Z,59.46
2022-12-29T01:19:01.023Z,58.65
2022-12-29T01:20:01.007Z,58.97
2022-12-29T01:21:00.975Z,59.14
2022-12-29T01:22:01.091Z,58.49
2022-12-29T01:23:00.983Z,59.62
2022-12-29T01:24:01.011Z,62.84
2022-12-29T01:25:01.004Z,61.07
2022-12-29T01:26:00.962Z,60.59
2022-12-29T01:27:01.007Z,58.65
2022-12-29T01:28:00.946Z,58.65
2022-12-29T01:29:00.934Z,59.14
2022-12-29T01:30:00.944Z,60.59
2022-12-29T01:31:00.904Z,58.97
2022-12-29T01:32:00.980Z,59.78
2022-12-29T01:33:00.954Z,58.97
2022-12-29T01:34:00.904Z,58.49
2022-12-29T01:35:00.911Z,58.17
2022-12-29T01:36:00.886Z,58.97
2022-12-29T01:37:00.884Z,58.81
2022-12-29T01:38:00.987Z,58.65
2022-12-29T01:39:00.860Z,58.65
2022-12-29T01:40:00.894Z,58.65
2022-12-29T01:41:00.878Z,58.17
2022-12-29T01:42:00.858Z,59.78
2022-12-29T01:43:00.850Z,59.14
2022-12-29T01:44:01.930Z,58.65
2022-12-29T01:45:00.838Z,58.97
2022-12-29T01:46:00.856Z,59.46
2022-12-29T01:47:00.816Z,59.30
2022-12-29T01:48:00.843Z,58.97
2022-12-29T01:49:00.868Z,58.33
2022-12-29T01:50:00.829Z,58.17
2022-12-29T01:51:00.778Z,59.62
2022-12-29T01:52:00.808Z,58.33
2022-12-29T01:53:00.788Z,60.10
2022-12-29T01:54:00.790Z,59.78
2022-12-29T01:55:00.822Z,58.81
2022-12-29T01:56:00.740Z,58.17
2022-12-29T01:57:00.784Z,57.85
2022-12-29T01:58:00.802Z,58.65
2022-12-29T01:59:00.780Z,59.14
2022-12-29T02:00:00.803Z,58.33
2022-12-29T02:01:00.814Z,58.33
2022-12-29T02:02:00.773Z,58.17
2022-12-29T02:03:00.825Z,59.14
2022-12-29T02:04:00.762Z,58.49
2022-12-29T02:05:04.487Z,58.17
2022-12-29T02:06:01.712Z,58.17
2022-12-29T02:07:00.741Z,58.65
2022-12-29T02:08:01.720Z,61.87
2022-12-29T02:09:00.757Z,58.65
2022-12-29T02:10:00.687Z,58.81
2022-12-29T02:11:00.721Z,58.49
2022-12-29T02:12:00.677Z,59.46
2022-12-29T02:13:00.695Z,58.49
2022-12-29T02:14:03.556Z,58.65
2022-12-29T02:15:00.715Z,58.65
2022-12-29T02:16:00.745Z,58.81
2022-12-29T02:17:00.664Z,57.52
2022-12-29T02:18:00.669Z,58.65
2022-12-29T02:19:00.634Z,58.97
2022-12-29T02:20:00.637Z,59.14
2022-12-29T02:21:00.666Z,58.81
2022-12-29T02:22:00.648Z,58.65
2022-12-29T02:23:00.643Z,58.97
2022-12-29T02:24:00.631Z,58.65
2022-12-29T02:25:00.647Z,59.14
2022-12-29T02:26:00.584Z,58.97
2022-12-29T02:27:00.606Z,58.65
2022-12-29T02:28:00.607Z,58.65
2022-12-29T02:29:00.598Z,59.94
2022-12-29T02:30:00.612Z,58.65
2022-12-29T02:31:00.572Z,58.81
2022-12-29T02:32:01.579Z,59.46
2022-12-29T02:33:00.575Z,58.65
2022-12-29T02:34:00.581Z,58.81
2022-12-29T02:35:00.545Z,58.65
2022-12-29T02:36:00.561Z,58.17
2022-12-29T02:37:00.510Z,59.62
2022-12-29T02:38:00.488Z,60.26
2022-12-29T02:39:00.515Z,59.30
2022-12-29T02:40:00.536Z,58.81
2022-12-29T02:41:00.542Z,58.49
2022-12-29T02:42:00.507Z,59.14
2022-12-29T02:43:00.522Z,59.14
2022-12-29T02:44:00.494Z,59.46
2022-12-29T02:45:00.522Z,60.91
2022-12-29T02:46:00.543Z,59.78
2022-12-29T02:47:00.514Z,59.62
2022-12-29T02:48:00.459Z,58.81
2022-12-29T02:49:00.459Z,59.46
2022-12-29T02:50:01.476Z,58.97
2022-12-29T02:51:00.466Z,59.14
2022-12-29T02:52:00.454Z,60.10
2022-12-29T02:53:00.457Z,61.87
2022-12-29T02:54:00.440Z,59.62
2022-12-29T02:55:00.439Z,59.30
2022-12-29T02:56:00.410Z,59.46
2022-12-29T02:57:00.422Z,58.97
2022-12-29T02:58:00.427Z,58.33
2022-12-29T02:59:00.442Z,58.81
2022-12-29T03:00:00.393Z,58.65
2022-12-29T03:01:00.441Z,59.62
2022-12-29T03:02:00.523Z,59.14
2022-12-29T03:03:00.498Z,60.10
2022-12-29T03:04:00.385Z,59.46
2022-12-29T03:05:00.379Z,60.91
2022-12-29T03:06:00.412Z,60.26
2022-12-29T03:07:00.363Z,59.14
2022-12-29T03:08:00.360Z,60.42
2022-12-29T03:09:00.328Z,59.78
2022-12-29T03:10:00.333Z,60.75
2022-12-29T03:11:00.344Z,59.94
2022-12-29T03:12:00.339Z,59.78
2022-12-29T03:13:00.313Z,60.10
2022-12-29T03:14:00.313Z,58.65
2022-12-29T03:15:00.324Z,59.14
2022-12-29T03:16:00.267Z,58.81
2022-12-29T03:17:00.349Z,59.14
2022-12-29T03:18:00.277Z,58.81
2022-12-29T03:19:00.329Z,58.97
2022-12-29T03:20:00.292Z,61.07
2022-12-29T03:21:00.289Z,59.78
2022-12-29T03:22:00.252Z,59.30
2022-12-29T03:23:00.326Z,58.65
2022-12-29T03:24:00.291Z,58.81
2022-12-29T03:25:00.228Z,58.65
2022-12-29T03:26:00.240Z,58.17
2022-12-29T03:27:00.261Z,58.65
2022-12-29T03:28:00.246Z,58.81
2022-12-29T03:29:00.243Z,58.97
2022-12-29T03:30:00.255Z,59.14
2022-12-29T03:31:00.307Z,58.65
2022-12-29T03:32:00.225Z,59.14
2022-12-29T03:33:00.169Z,59.62
2022-12-29T03:34:00.242Z,59.30
2022-12-29T03:35:00.201Z,60.26
2022-12-29T03:36:00.141Z,60.42
2022-12-29T03:37:00.185Z,59.62
2022-12-29T03:38:00.170Z,59.30
2022-12-29T03:39:00.156Z,58.65
2022-12-29T03:40:00.177Z,59.14
2022-12-29T03:41:00.185Z,60.26
2022-12-29T03:42:00.188Z,59.94
2022-12-29T03:43:00.137Z,59.46
2022-12-29T03:44:00.170Z,58.65
2022-12-29T03:45:00.245Z,58.33
2022-12-29T03:46:00.204Z,59.62
2022-12-29T03:47:00.139Z,59.30
2022-12-29T03:48:00.114Z,59.62
2022-12-29T03:49:00.117Z,58.65
2022-12-29T03:50:00.149Z,59.62
2022-12-29T03:51:00.143Z,58.17
2022-12-29T03:52:00.068Z,58.65
2022-12-29T03:53:00.112Z,59.14
2022-12-29T03:54:00.065Z,58.49
2022-12-29T03:55:00.079Z,58.81
2022-12-29T03:56:00.049Z,58.97
2022-12-29T03:57:00.080Z,59.30
2022-12-29T03:58:00.033Z,61.23
2022-12-29T03:59:00.072Z,60.26
2022-12-29T04:00:00.036Z,58.97
2022-12-29T04:01:00.061Z,59.46
2022-12-29T04:02:00.233Z,58.97
2022-12-29T04:03:00.188Z,61.07
2022-12-29T04:03:59.993Z,59.78
2022-12-29T04:05:00.024Z,58.81
2022-12-29T04:05:59.975Z,58.97
2022-12-29T04:07:00.040Z,59.46
2022-12-29T04:07:59.977Z,59.62
2022-12-29T04:08:59.971Z,61.07
2022-12-29T04:09:59.985Z,59.78
2022-12-29T04:10:59.996Z,58.97
2022-12-29T04:11:59.987Z,60.10
2022-12-29T04:12:59.996Z,62.20
2022-12-29T04:13:59.995Z,65.90
2022-12-29T04:14:59.956Z,60.91
2022-12-29T04:16:00.011Z,60.59
2022-12-29T04:16:59.940Z,60.10
2022-12-29T04:17:59.976Z,59.62
2022-12-29T04:18:59.934Z,60.26
2022-12-29T04:19:59.947Z,59.62
2022-12-29T04:20:59.949Z,60.10
2022-12-29T04:21:59.928Z,60.26
2022-12-29T04:22:59.912Z,60.26
2022-12-29T04:23:59.958Z,61.23
2022-12-29T04:24:59.912Z,60.59
2022-12-29T04:25:59.844Z,61.07
2022-12-29T04:27:00.919Z,63.16
2022-12-29T04:27:59.877Z,62.68
2022-12-29T04:28:59.978Z,63.81
2022-12-29T04:29:59.874Z,60.26
2022-12-29T04:30:59.883Z,59.78
2022-12-29T04:31:59.872Z,59.62
2022-12-29T04:32:59.826Z,62.36
2022-12-29T04:33:59.883Z,59.94
2022-12-29T04:34:59.993Z,59.30
2022-12-29T04:35:59.822Z,58.81
2022-12-29T04:36:59.860Z,61.71
2022-12-29T04:37:59.804Z,63.33
2022-12-29T04:38:59.826Z,60.75
2022-12-29T04:39:59.932Z,61.55
2022-12-29T04:40:59.760Z,61.07
2022-12-29T04:41:59.788Z,62.36
2022-12-29T04:42:59.806Z,60.75
2022-12-29T04:43:59.768Z,63.00
2022-12-29T04:44:59.758Z,60.91
2022-12-29T04:45:59.879Z,61.39
2022-12-29T04:46:59.802Z,61.39
2022-12-29T04:47:59.786Z,62.04
2022-12-29T04:48:59.788Z,64.13
2022-12-29T04:49:59.760Z,59.94
2022-12-29T04:50:59.768Z,61.23
2022-12-29T04:51:59.726Z,60.42
2022-12-29T04:53:00.762Z,60.75
2022-12-29T04:53:59.747Z,61.23
2022-12-29T04:54:59.703Z,60.26
2022-12-29T04:55:59.732Z,60.26
2022-12-29T04:56:59.840Z,61.55
2022-12-29T04:57:59.754Z,63.16
2022-12-29T04:58:59.662Z,62.36
2022-12-29T04:59:59.686Z,62.36
2022-12-29T05:00:59.675Z,65.90
2022-12-29T05:01:59.783Z,60.75
2022-12-29T05:02:59.799Z,61.71
2022-12-29T05:03:59.739Z,61.07
2022-12-29T05:04:59.660Z,62.36
2022-12-29T05:05:59.671Z,66.71
2022-12-29T05:06:59.651Z,62.84
2022-12-29T05:07:59.746Z,61.55
2022-12-29T05:08:59.647Z,61.07
2022-12-29T05:09:59.629Z,61.71
2022-12-29T05:10:59.628Z,61.07
2022-12-29T05:11:59.613Z,60.59
2022-12-29T05:12:59.640Z,61.07
2022-12-29T05:13:59.618Z,66.55
2022-12-29T05:14:59.581Z,62.20
2022-12-29T05:15:59.694Z,61.07
2022-12-29T05:16:59.616Z,59.94
2022-12-29T05:17:59.622Z,63.49
2022-12-29T05:18:59.608Z,59.14
2022-12-29T05:19:59.591Z,59.62
2022-12-29T05:20:59.558Z,59.94
2022-12-29T05:21:59.551Z,61.55
2022-12-29T05:22:59.599Z,61.07
2022-12-29T05:23:59.587Z,62.36
2022-12-29T05:24:59.533Z,61.71
2022-12-29T05:25:59.538Z,60.10
2022-12-29T05:26:59.559Z,60.26
2022-12-29T05:27:59.503Z,62.52
2022-12-29T05:28:59.531Z,61.23
2022-12-29T05:29:59.518Z,61.39
2022-12-29T05:30:59.559Z,60.59
2022-12-29T05:31:59.499Z,59.94
2022-12-29T05:32:59.511Z,59.94
2022-12-29T05:33:59.493Z,63.49
2022-12-29T05:34:59.516Z,63.16
2022-12-29T05:35:59.494Z,61.87
2022-12-29T05:36:59.508Z,61.87
2022-12-29T05:37:59.493Z,63.81
2022-12-29T05:38:59.514Z,67.51
2022-12-29T05:39:59.441Z,66.71
2022-12-29T05:40:59.571Z,62.36
2022-12-29T05:41:59.441Z,62.68
2022-12-29T05:42:59.454Z,61.87
2022-12-29T05:43:59.453Z,60.26
2022-12-29T05:44:59.393Z,61.87
2022-12-29T05:45:59.553Z,62.36
2022-12-29T05:46:59.499Z,60.75
2022-12-29T05:47:59.383Z,59.14
2022-12-29T05:48:59.388Z,63.00
2022-12-29T05:49:59.414Z,60.75
2022-12-29T05:50:59.387Z,61.07
2022-12-29T05:51:59.451Z,66.71
2022-12-29T05:52:59.399Z,61.71
2022-12-29T05:53:59.356Z,60.10
2022-12-29T05:54:59.380Z,61.07
2022-12-29T05:55:59.368Z,66.06
2022-12-29T05:56:59.377Z,61.87
2022-12-29T05:57:59.311Z,61.55
2022-12-29T05:58:59.374Z,59.78
2022-12-29T05:59:59.351Z,59.78
2022-12-29T06:00:59.328Z,62.52
2022-12-29T06:01:59.534Z,63.33
2022-12-29T06:02:59.561Z,63.33
2022-12-29T06:03:59.407Z,61.39
2022-12-29T06:04:59.272Z,60.75
2022-12-29T06:05:59.282Z,64.61
2022-12-29T06:06:59.315Z,63.49
2022-12-29T06:07:59.302Z,64.45
2022-12-29T06:08:59.276Z,62.68
2022-12-29T06:09:59.281Z,62.20
2022-12-29T06:10:59.303Z,63.33
2022-12-29T06:11:59.266Z,62.36
2022-12-29T06:12:59.244Z,64.29
2022-12-29T06:13:59.274Z,63.16
2022-12-29T06:14:59.240Z,63.16
2022-12-29T06:15:59.312Z,68.32
2022-12-29T06:16:59.214Z,59.94
2022-12-29T06:17:59.262Z,60.42
2022-12-29T06:18:59.256Z,60.59
2022-12-29T06:19:59.204Z,60.42
2022-12-29T06:20:59.176Z,60.10
2022-12-29T06:21:59.194Z,60.59
2022-12-29T06:22:59.195Z,61.39
2022-12-29T06:23:59.204Z,60.59
2022-12-29T06:25:04.626Z,59.78
2022-12-29T06:25:59.175Z,61.87
2022-12-29T06:26:59.166Z,63.16
2022-12-29T06:27:59.161Z,60.10
2022-12-29T06:28:59.177Z,61.23
2022-12-29T06:29:59.175Z,61.07
2022-12-29T06:30:59.152Z,65.42
2022-12-29T06:31:59.325Z,61.71
2022-12-29T06:32:59.169Z,60.75
2022-12-29T06:34:03.516Z,64.45
2022-12-29T06:35:00.276Z,63.81
2022-12-29T06:35:59.136Z,62.04
2022-12-29T06:36:59.093Z,66.23
2022-12-29T06:37:59.071Z,61.23
2022-12-29T06:38:59.074Z,62.84
2022-12-29T06:39:59.111Z,59.94
2022-12-29T06:40:59.203Z,59.94
2022-12-29T06:41:59.084Z,65.42
2022-12-29T06:42:59.088Z,64.13
2022-12-29T06:43:59.065Z,61.39
2022-12-29T06:44:59.076Z,61.23
2022-12-29T06:45:59.110Z,61.07
2022-12-29T06:46:59.069Z,65.10
2022-12-29T06:47:59.076Z,62.04
2022-12-29T06:48:59.064Z,62.68
2022-12-29T06:49:59.107Z,61.39
2022-12-29T06:50:59.002Z,67.68
2022-12-29T06:51:59.042Z,63.16
2022-12-29T06:52:59.035Z,68.48
2022-12-29T06:53:59.024Z,61.87
2022-12-29T06:54:58.968Z,66.87
2022-12-29T06:55:58.971Z,62.20
2022-12-29T06:56:59.006Z,63.49
2022-12-29T06:57:59.014Z,61.55
2022-12-29T06:58:58.998Z,61.07
2022-12-29T06:59:58.976Z,64.61
2022-12-29T07:00:59.041Z,62.52
2022-12-29T07:01:59.139Z,61.87
2022-12-29T07:02:59.130Z,63.16
2022-12-29T07:03:58.933Z,62.68
2022-12-29T07:04:58.970Z,63.97
2022-12-29T07:05:58.917Z,63.16
2022-12-29T07:06:58.952Z,65.10
2022-12-29T07:07:58.950Z,65.10
2022-12-29T07:08:58.948Z,66.71
2022-12-29T07:09:58.877Z,64.45
2022-12-29T07:10:58.882Z,65.90
2022-12-29T07:11:58.861Z,66.06
2022-12-29T07:12:58.923Z,64.78
2022-12-29T07:14:02.199Z,65.42
2022-12-29T07:14:58.860Z,71.22
2022-12-29T07:15:58.893Z,64.61
2022-12-29T07:16:58.866Z,65.42
2022-12-29T07:17:58.878Z,65.10
2022-12-29T07:18:58.891Z,65.90
2022-12-29T07:19:58.842Z,66.55
2022-12-29T07:20:58.832Z,63.16
2022-12-29T07:21:58.860Z,67.84
2022-12-29T07:22:58.831Z,64.94
2022-12-29T07:23:58.886Z,63.97
2022-12-29T07:24:58.956Z,64.94
2022-12-29T07:25:58.846Z,61.39
2022-12-29T07:26:58.831Z,61.39
2022-12-29T07:27:58.841Z,66.23
2022-12-29T07:28:58.803Z,64.78
2022-12-29T07:29:58.799Z,63.81
2022-12-29T07:30:58.773Z,66.71
2022-12-29T07:31:58.817Z,61.87
2022-12-29T07:32:58.757Z,62.20
2022-12-29T07:33:58.791Z,64.45
2022-12-29T07:34:58.774Z,60.91
2022-12-29T07:35:58.849Z,61.55
2022-12-29T07:36:58.775Z,61.87
2022-12-29T07:37:58.728Z,64.13
2022-12-29T07:38:58.722Z,64.45
2022-12-29T07:39:58.771Z,68.00
2022-12-29T07:40:58.855Z,61.55
2022-12-29T07:42:04.600Z,68.80
2022-12-29T07:42:59.714Z,62.52
2022-12-29T07:43:58.704Z,61.87
2022-12-29T07:44:58.709Z,63.81
2022-12-29T07:45:58.741Z,64.45
2022-12-29T07:46:59.347Z,68.80
2022-12-29T07:47:58.666Z,63.65
2022-12-29T07:48:58.679Z,64.78
2022-12-29T07:49:58.686Z,62.84
2022-12-29T07:50:58.629Z,63.97
2022-12-29T07:51:58.771Z,64.13
2022-12-29T07:52:58.650Z,65.58
2022-12-29T07:53:58.648Z,68.32
2022-12-29T07:54:58.641Z,64.78
2022-12-29T07:55:58.647Z,62.84
2022-12-29T07:56:58.631Z,60.91
2022-12-29T07:57:58.663Z,61.39
2022-12-29T07:58:58.593Z,61.55
2022-12-29T07:59:59.638Z,59.62
2022-12-29T08:00:58.662Z,62.04
2022-12-29T08:01:58.638Z,62.52
2022-12-29T08:02:58.705Z,63.97
2022-12-29T08:03:58.600Z,63.49
2022-12-29T08:04:58.592Z,63.65
2022-12-29T08:05:58.586Z,65.74
2022-12-29T08:06:58.565Z,63.00
2022-12-29T08:07:58.570Z,63.49
2022-12-29T08:09:01.633Z,65.90
2022-12-29T08:09:59.534Z,64.29
2022-12-29T08:10:58.525Z,65.10
2022-12-29T08:11:58.534Z,64.45
2022-12-29T08:12:58.602Z,64.94
2022-12-29T08:13:58.551Z,65.90
2022-12-29T08:14:58.520Z,65.10
2022-12-29T08:15:58.578Z,64.61
2022-12-29T08:16:58.499Z,65.74
2022-12-29T08:17:58.538Z,61.71
2022-12-29T08:18:58.468Z,65.42
2022-12-29T08:19:58.536Z,63.33
2022-12-29T08:20:58.496Z,64.78
2022-12-29T08:21:58.486Z,62.04
2022-12-29T08:22:58.444Z,67.51
2022-12-29T08:23:58.475Z,64.13
2022-12-29T08:24:58.584Z,68.32
2022-12-29T08:25:58.441Z,66.39
2022-12-29T08:26:59.403Z,64.94
2022-12-29T08:27:58.450Z,69.13
2022-12-29T08:28:58.426Z,66.23
2022-12-29T08:29:58.463Z,66.39
2022-12-29T08:30:58.520Z,64.78
2022-12-29T08:31:58.406Z,71.38
2022-12-29T08:32:58.454Z,63.65
2022-12-29T08:33:58.425Z,65.10
2022-12-29T08:34:58.433Z,68.00
2022-12-29T08:35:58.448Z,66.87
2022-12-29T08:36:58.412Z,65.58
2022-12-29T08:37:58.406Z,63.97
2022-12-29T08:38:58.362Z,67.35
2022-12-29T08:39:58.398Z,65.42
2022-12-29T08:40:58.358Z,64.94
2022-12-29T08:41:58.386Z,68.48
2022-12-29T08:42:58.332Z,66.55
2022-12-29T08:43:58.370Z,64.29
2022-12-29T08:44:58.352Z,66.87
2022-12-29T08:45:58.390Z,67.68
2022-12-29T08:46:58.404Z,68.16
2022-12-29T08:47:58.346Z,67.51
2022-12-29T08:48:58.357Z,67.84
2022-12-29T08:49:58.319Z,64.29
2022-12-29T08:50:58.333Z,66.39
2022-12-29T08:51:58.317Z,68.00
2022-12-29T08:52:58.407Z,68.64
2022-12-29T08:53:58.297Z,66.39
2022-12-29T08:54:58.261Z,65.26
2022-12-29T08:56:03.946Z,65.26
2022-12-29T08:57:00.265Z,63.81
2022-12-29T08:57:58.357Z,67.68
2022-12-29T08:58:58.236Z,68.48
2022-12-29T08:59:58.271Z,65.74
2022-12-29T09:00:58.264Z,64.13
2022-12-29T09:01:58.355Z,65.58
2022-12-29T09:02:58.403Z,66.39
2022-12-29T09:04:16.254Z,66.23
2022-12-29T09:05:00.283Z,65.10
2022-12-29T09:05:58.203Z,68.64
2022-12-29T09:06:58.254Z,65.42
2022-12-29T09:07:58.231Z,67.03
2022-12-29T09:08:58.266Z,65.90
2022-12-29T09:09:58.186Z,68.16
2022-12-29T09:10:58.196Z,64.94
2022-12-29T09:11:58.199Z,66.87
2022-12-29T09:12:58.159Z,70.58
2022-12-29T09:13:58.231Z,65.90
2022-12-29T09:14:58.196Z,73.15
2022-12-29T09:15:58.253Z,66.55
2022-12-29T09:16:58.167Z,64.94
2022-12-29T09:17:58.145Z,65.10
2022-12-29T09:18:58.134Z,64.78
2022-12-29T09:19:58.177Z,67.35
2022-12-29T09:20:58.116Z,66.87
2022-12-29T09:21:58.138Z,67.03
2022-12-29T09:22:58.128Z,67.84
2022-12-29T09:23:58.111Z,70.58
2022-12-29T09:24:58.133Z,69.13
2022-12-29T09:25:58.179Z,67.51
2022-12-29T09:26:58.121Z,68.00
2022-12-29T09:27:58.102Z,69.77
2022-12-29T09:28:58.076Z,69.29
2022-12-29T09:29:58.095Z,69.45
2022-12-29T09:30:58.103Z,64.94
2022-12-29T09:31:58.107Z,68.00
2022-12-29T09:32:59.997Z,69.93
2022-12-29T09:33:58.096Z,71.87
2022-12-29T09:34:58.068Z,70.42
2022-12-29T09:35:58.041Z,62.52
2022-12-29T09:36:58.044Z,65.10
2022-12-29T09:37:58.039Z,65.42
2022-12-29T09:38:58.020Z,63.65
2022-12-29T09:39:58.024Z,63.16
2022-12-29T09:40:58.006Z,63.81
2022-12-29T09:41:58.040Z,65.58
2022-12-29T09:42:58.011Z,67.51
2022-12-29T09:43:57.960Z,69.45
2022-12-29T09:44:57.962Z,70.25
2022-12-29T09:45:57.960Z,67.84
2022-12-29T09:46:57.969Z,68.96
2022-12-29T09:47:58.091Z,68.48
2022-12-29T09:48:57.921Z,63.33
2022-12-29T09:49:57.952Z,65.10
2022-12-29T09:50:57.929Z,62.04
2022-12-29T09:51:57.966Z,61.07
2022-12-29T09:52:58.034Z,62.36
2022-12-29T09:53:57.912Z,67.35
2022-12-29T09:55:02.996Z,64.13
2022-12-29T09:55:57.920Z,63.00
2022-12-29T09:56:57.927Z,65.42
2022-12-29T09:57:57.909Z,60.59
2022-12-29T09:58:57.927Z,61.23
2022-12-29T09:59:57.865Z,64.61
2022-12-29T10:00:57.889Z,68.00
2022-12-29T10:01:58.188Z,69.29
2022-12-29T10:02:58.011Z,69.13
2022-12-29T10:03:57.907Z,62.20
2022-12-29T10:04:57.874Z,72.03
2022-12-29T10:05:57.816Z,68.64
2022-12-29T10:07:27.915Z,67.35
2022-12-29T10:07:59.817Z,64.78
2022-12-29T10:08:57.845Z,65.90
2022-12-29T10:09:57.849Z,64.94
2022-12-29T10:10:57.794Z,68.96
2022-12-29T10:11:57.798Z,62.68
2022-12-29T10:12:57.794Z,64.13
2022-12-29T10:13:57.781Z,72.51
2022-12-29T10:14:57.902Z,65.90
2022-12-29T10:15:57.929Z,67.03
2022-12-29T10:16:57.758Z,63.97
2022-12-29T10:17:57.784Z,64.13
2022-12-29T10:18:57.753Z,66.71
2022-12-29T10:19:57.758Z,72.99
2022-12-29T10:20:57.779Z,66.06
2022-12-29T10:21:57.744Z,68.48
2022-12-29T10:22:57.723Z,61.87
2022-12-29T10:23:57.738Z,64.45
2022-12-29T10:24:57.733Z,62.36
2022-12-29T10:25:57.774Z,60.42
2022-12-29T10:26:57.711Z,62.84
2022-12-29T10:27:57.723Z,66.06
2022-12-29T10:28:57.731Z,67.51
2022-12-29T10:29:57.741Z,64.45
2022-12-29T10:30:57.661Z,68.48
2022-12-29T10:31:57.763Z,61.07
2022-12-29T10:32:57.656Z,68.96
2022-12-29T10:33:57.683Z,63.16
2022-12-29T10:34:57.679Z,60.75
2022-12-29T10:35:57.640Z,68.16
2022-12-29T10:36:57.766Z,60.75
2022-12-29T10:37:57.669Z,61.71
2022-12-29T10:38:57.651Z,63.16
2022-12-29T10:39:57.638Z,61.07
2022-12-29T10:40:57.614Z,64.61
2022-12-29T10:41:57.620Z,61.39
2022-12-29T10:42:57.770Z,62.04
2022-12-29T10:43:57.628Z,61.87
2022-12-29T10:44:57.622Z,61.07
2022-12-29T10:45:57.729Z,60.59
2022-12-29T10:46:57.571Z,61.87
2022-12-29T10:47:57.701Z,63.81
2022-12-29T10:48:57.597Z,64.13
2022-12-29T10:49:57.576Z,70.09
2022-12-29T10:51:01.776Z,61.55
2022-12-29T10:51:58.561Z,59.78
2022-12-29T10:52:57.562Z,60.26
2022-12-29T10:53:57.559Z,65.42
2022-12-29T10:54:57.517Z,67.51
2022-12-29T10:55:57.553Z,70.90
2022-12-29T10:56:57.533Z,66.55
2022-12-29T10:57:57.527Z,65.42
2022-12-29T10:58:57.556Z,66.23
2022-12-29T10:59:57.511Z,62.20
2022-12-29T11:00:57.600Z,61.39
2022-12-29T11:01:57.678Z,64.78
2022-12-29T11:02:57.689Z,64.13
2022-12-29T11:03:57.510Z,64.13
2022-12-29T11:04:57.517Z,62.52
2022-12-29T11:05:57.464Z,65.26
2022-12-29T11:06:57.495Z,67.35
2022-12-29T11:07:57.468Z,64.29
2022-12-29T11:08:57.508Z,63.49
2022-12-29T11:09:57.555Z,70.74
2022-12-29T11:10:57.459Z,67.19
2022-12-29T11:11:57.441Z,68.32
2022-12-29T11:12:57.441Z,68.32
2022-12-29T11:13:57.435Z,63.49
2022-12-29T11:14:57.390Z,61.39
2022-12-29T11:15:57.516Z,62.04
2022-12-29T11:16:57.440Z,59.94
2022-12-29T11:17:57.388Z,60.91
2022-12-29T11:18:57.403Z,62.84
2022-12-29T11:19:57.388Z,62.20
2022-12-29T11:20:57.477Z,66.23
2022-12-29T11:21:57.373Z,65.10
2022-12-29T11:22:57.379Z,64.61
2022-12-29T11:23:57.426Z,67.51
2022-12-29T11:24:57.384Z,64.78
2022-12-29T11:25:57.359Z,66.39
2022-12-29T11:26:57.400Z,61.71
2022-12-29T11:27:57.372Z,61.55
2022-12-29T11:28:57.367Z,64.78
2022-12-29T11:29:57.376Z,65.58
2022-12-29T11:30:57.297Z,61.23
2022-12-29T11:31:57.432Z,60.75
2022-12-29T11:32:57.307Z,64.94
2022-12-29T11:33:57.268Z,61.07
2022-12-29T11:34:57.320Z,60.59
2022-12-29T11:35:57.282Z,61.87
2022-12-29T11:36:57.295Z,63.00
2022-12-29T11:37:57.428Z,64.29
2022-12-29T11:38:57.246Z,64.13
2022-12-29T11:39:58.274Z,70.42
2022-12-29T11:40:57.282Z,61.71
2022-12-29T11:41:57.277Z,65.42
2022-12-29T11:42:57.284Z,62.04
2022-12-29T11:43:57.266Z,67.03
2022-12-29T11:44:57.257Z,66.87
2022-12-29T11:45:57.336Z,64.29
2022-12-29T11:46:57.247Z,69.45
2022-12-29T11:47:57.224Z,61.07
2022-12-29T11:48:57.252Z,62.20
2022-12-29T11:49:58.215Z,67.84
2022-12-29T11:50:57.197Z,67.84
2022-12-29T11:51:57.219Z,67.51
2022-12-29T11:52:57.197Z,67.51
2022-12-29T11:53:57.217Z,64.13
2022-12-29T11:54:57.148Z,67.19
2022-12-29T11:55:58.169Z,66.23
2022-12-29T11:56:57.160Z,63.81
2022-12-29T11:57:57.135Z,63.49
2022-12-29T11:58:57.156Z,61.71
2022-12-29T11:59:57.395Z,61.55
2022-12-29T12:00:57.141Z,69.45
2022-12-29T12:01:57.256Z,63.33
2022-12-29T12:02:57.161Z,65.10
2022-12-29T12:03:57.170Z,66.39
2022-12-29T12:04:57.229Z,65.10
2022-12-29T12:05:57.101Z,69.13
2022-12-29T12:06:57.103Z,61.07
2022-12-29T12:07:57.133Z,61.55
2022-12-29T12:08:57.089Z,62.84
2022-12-29T12:10:01.567Z,69.13
2022-12-29T12:10:57.181Z,65.10
2022-12-29T12:11:57.090Z,63.49
2022-12-29T12:12:57.080Z,66.87
2022-12-29T12:13:57.073Z,64.94
2022-12-29T12:14:57.043Z,68.48
2022-12-29T12:15:57.553Z,61.39
2022-12-29T12:16:57.057Z,68.32
2022-12-29T12:17:57.060Z,68.00
2022-12-29T12:18:56.991Z,66.71
2022-12-29T12:19:56.991Z,65.42
2022-12-29T12:20:57.000Z,62.68
2022-12-29T12:21:57.139Z,68.64
2022-12-29T12:22:57.007Z,68.48
2022-12-29T12:23:57.011Z,66.55
2022-12-29T12:24:57.029Z,66.39
2022-12-29T12:25:56.958Z,67.03
2022-12-29T12:26:57.002Z,64.94
2022-12-29T12:27:56.961Z,71.06
2022-12-29T12:28:57.007Z,68.48
2022-12-29T12:29:56.943Z,69.45
2022-12-29T12:30:56.977Z,67.35
2022-12-29T12:31:56.958Z,64.13
2022-12-29T12:32:56.963Z,72.19
2022-12-29T12:33:56.922Z,64.78
2022-12-29T12:34:56.942Z,67.35
2022-12-29T12:35:56.952Z,63.00
2022-12-29T12:36:56.903Z,71.06
2022-12-29T12:37:57.009Z,65.74
2022-12-29T12:38:56.935Z,67.19
2022-12-29T12:39:56.884Z,62.20
2022-12-29T12:40:56.897Z,64.13
2022-12-29T12:41:56.894Z,65.10
2022-12-29T12:42:56.864Z,68.48
2022-12-29T12:43:56.968Z,65.10
2022-12-29T12:44:56.848Z,63.65
2022-12-29T12:45:56.941Z,65.58
2022-12-29T12:46:56.951Z,63.97
2022-12-29T12:47:56.882Z,67.35
2022-12-29T12:48:56.828Z,65.10
2022-12-29T12:49:56.859Z,66.39
2022-12-29T12:50:56.810Z,66.06
2022-12-29T12:52:02.964Z,63.65